Terminal Aerodrome Forecast
Issued by NWS Quad Cities IA IL

Home | Current Version | Previous Version | Text Only | Print | Product List | Glossary On
Versions: 1 2 3 4 5 6 7 8 9 10 11 12 13 14 15 16 17 18 19 20 21 22 23 24 25 26 27
000
FTUS43 KDVN 192347
TAFMLI
TAF
KMLI 192347Z 2000/2024 VRB03KT P6SM BKN200
     FM200400 05005KT P6SM VCTS BKN050CB OVC100
     FM200800 08009KT 6SM SHRA VCTS OVC015CB
     FM201300 07009KT P6SM OVC010
     FM201700 07010KT P6SM SCT010 BKN030
     FM202200 08007KT P6SM SCT030=

USA.gov is the U.S. government's official web portal to all federal, state and local government web resources and services.